Meteorología y climatología de Navarra
Datos de la estación - Meteo Navarra

Estación de Carrascal GN

Altitud 568 m.


Datos desde el 09/11/2018 hasta el 10/11/2018 en horario solar
Los datos son PROVISIONALES

Anterior Página 1 de 1 Siguiente Descargar: Formato para Excel 2000 o superior   Formato csv   Formato para OpenOffice Calc
Fecha Temperatura Humedad relativa Radiación global Insolación Precipitación Velocidad viento 10 m Velocidad viento 10 m Dirección viento 10 m
ºC % W/m² s l/m² m/s km/h º
09/11/2018 0:00 6.4 96 0.0 0 0.7 1.7 6.2 163
09/11/2018 0:10 6.4 95 0.0 0 0.1 1.2 4.1 152
09/11/2018 0:20 6.5 96 0.0 0 0.0 0.7 2.3 119
09/11/2018 0:30 6.5 95 0.0 0 0.0 1.0 3.7 51
09/11/2018 0:40 6.6 94 0.0 0 0.0 1.9 6.8 60
09/11/2018 0:50 6.5 94 0.0 0 0.0 1.0 3.6 71
09/11/2018 1:00 6.5 93 0.0 0 0.0 1.0 3.7 20
09/11/2018 1:10 6.3 93 0.0 0 0.0 2.8 10.1 26
09/11/2018 1:20 6.1 94 0.0 0 0.0 2.7 9.7 26
09/11/2018 1:30 6.0 95 0.0 0 0.0 0.9 3.3 249
09/11/2018 1:40 6.0 96 0.0 0 0.0 2.4 8.6 212
09/11/2018 1:50 6.0 96 0.0 0 0.0 1.0 3.5 175
09/11/2018 2:00 6.0 96 0.0 0 0.0 0.1 0.3 172
09/11/2018 2:10 6.2 96 0.0 0 0.0 0.3 0.9 35
09/11/2018 2:20 6.2 95 0.0 0 0.0 0.3 1.2 17
09/11/2018 2:30 6.2 95 0.0 0 0.0 0.2 0.8 124
09/11/2018 2:40 6.1 96 0.0 0 0.0 0.5 1.8 162
09/11/2018 2:50 6.2 96 0.0 0 0.0 0.6 2.2 21
09/11/2018 3:00 6.2 96 0.0 0 0.0 0.3 1.2 247
09/11/2018 3:10 6.3 96 0.0 0 0.0 0.4 1.6 266
09/11/2018 3:20 6.3 95 0.0 0 0.0 0.6 2.1 29
09/11/2018 3:30 6.5 94 0.0 0 0.0 0.4 1.3 262
09/11/2018 3:40 6.5 94 0.0 0 0.0 0.7 2.6 190
09/11/2018 3:50 6.3 94 0.0 0 0.0 1.1 4.0 176
09/11/2018 4:00 6.3 94 0.0 0 0.0 1.8 6.5 181
09/11/2018 4:10 6.4 94 0.0 0 0.0 1.2 4.4 221
09/11/2018 4:20 6.4 94 0.0 0 0.0 1.1 4.1 226
09/11/2018 4:30 6.4 94 0.0 0 0.0 0.6 2.1 264
09/11/2018 4:40 6.5 94 0.0 0 0.0 1.6 5.6 46
09/11/2018 4:50 6.6 95 0.0 0 0.0 2.4 8.7 43
09/11/2018 5:00 6.4 95 0.0 0 0.0 3.2 11.7 40
09/11/2018 5:10 6.5 95 0.0 0 0.0 3.0 10.7 22
09/11/2018 5:20 6.4 95 0.0 0 0.0 2.9 10.5 34
09/11/2018 5:30 6.4 95 0.0 0 0.0 2.4 8.7 40
09/11/2018 5:40 6.5 95 0.0 0 0.0 2.3 8.3 7
09/11/2018 5:50 6.4 95 0.0 0 0.0 2.3 8.4 2
09/11/2018 6:00 6.4 95 0.0 0 0.0 2.6 9.3 358
09/11/2018 6:10 6.4 96 0.0 0 0.0 2.4 8.8 358
09/11/2018 6:20 6.5 95 0.0 0 0.0 2.2 7.9 3
09/11/2018 6:30 6.5 95 0.0 0 0.0 2.0 7.2 347
09/11/2018 6:40 6.4 95 0.0 0 0.0 2.5 9.0 336
09/11/2018 6:50 6.5 94 0.0 0 0.0 3.0 10.8 352
09/11/2018 7:00 6.6 94 0.0 0 0.0 2.6 9.4 11
09/11/2018 7:10 6.7 94 0.0 0 0.0 3.1 11.2 29
09/11/2018 7:20 6.6 94 0.0 0 0.0 4.3 15.3 40
09/11/2018 7:30 6.6 93 9.6 0 0.0 4.6 16.5 28
09/11/2018 7:40 6.7 92 35.6 0 0.0 5.3 19.0 34
09/11/2018 7:50 6.8 92 22.9 0 0.0 4.7 17.1 32
09/11/2018 8:00 6.9 92 39.9 0 0.0 3.7 13.3 34
09/11/2018 8:10 6.9 93 74.8 0 0.0 3.2 11.6 33
09/11/2018 8:20 7.0 92 63.1 0 0.0 3.4 12.2 28
09/11/2018 8:30 7.0 91 51.5 0 0.0 4.2 14.9 38
09/11/2018 8:40 7.1 91 90.8 0 0.0 3.7 13.2 48
09/11/2018 8:50 7.4 90 113.1 0 0.0 3.5 12.5 52
09/11/2018 9:00 7.6 87 158.3 128 0.0 3.2 11.6 45
09/11/2018 9:10 8.1 82 205.5 322 0.0 3.0 10.7 36
09/11/2018 9:20 8.3 83 122.7 0 0.0 2.1 7.4 353
09/11/2018 9:30 7.9 88 134.1 0 0.0 2.4 8.5 264
09/11/2018 9:40 7.7 88 115.3 0 0.0 2.5 8.9 263
09/11/2018 9:50 7.8 87 158.6 0 0.0 2.5 9.1 258
09/11/2018 10:00 7.9 87 103.8 0 0.0 2.8 10.0 249
09/11/2018 10:10 7.9 87 122.2 0 0.0 2.5 8.9 247
09/11/2018 10:20 8.1 86 141.2 0 0.0 2.1 7.5 259
09/11/2018 10:30 7.9 83 169.7 0 0.0 1.7 5.9 284
09/11/2018 10:40 8.2 82 245.4 256 0.0 1.2 4.2 269
09/11/2018 10:50 8.7 82 260.4 406 0.0 1.5 5.3 258
09/11/2018 11:00 8.7 81 244.0 196 0.0 2.0 7.3 261
09/11/2018 11:10 9.0 80 303.9 510 0.0 2.0 7.1 255
09/11/2018 11:20 9.4 80 263.5 320 0.0 2.9 10.5 256
09/11/2018 11:30 9.4 80 233.7 0 0.0 2.9 10.4 257
09/11/2018 11:40 9.8 77 339.4 524 0.0 1.7 6.2 245
09/11/2018 11:50 10.5 74 470.4 600 0.0 1.2 4.4 248
09/11/2018 12:00 9.8 74 284.3 434 0.0 1.2 4.2 276
09/11/2018 12:10 10.2 75 208.0 0 0.0 1.6 5.9 231
09/11/2018 12:20 10.0 74 210.2 0 0.0 1.8 6.4 249
09/11/2018 12:30 10.4 75 227.2 78 0.0 1.9 6.8 217
09/11/2018 12:40 11.2 70 556.0 592 0.0 1.0 3.4 206
09/11/2018 12:50 12.2 67 487.4 526 0.0 1.6 5.8 218
09/11/2018 13:00 12.5 65 479.2 584 0.0 2.6 9.2 229
09/11/2018 13:10 12.0 65 418.8 500 0.0 2.7 9.6 235
09/11/2018 13:20 12.4 64 405.3 464 0.0 2.7 9.9 212
09/11/2018 13:30 12.2 63 263.7 298 0.0 2.9 10.4 207
09/11/2018 13:40 12.5 63 519.9 600 0.0 6.0 21.5 234
09/11/2018 13:50 12.5 59 493.8 600 0.0 6.0 21.7 250
09/11/2018 14:00 12.6 60 423.2 554 0.0 5.5 19.9 236
09/11/2018 14:10 12.7 60 325.1 510 0.0 5.0 18.1 242
09/11/2018 14:20 11.9 62 291.9 580 0.0 5.3 19.0 248
09/11/2018 14:30 12.4 60 390.7 600 0.0 4.4 15.7 248
09/11/2018 14:40 12.6 58 333.3 600 0.0 4.2 15.1 245
09/11/2018 14:50 12.6 56 301.6 600 0.0 4.2 15.0 241
09/11/2018 15:00 12.4 56 275.8 600 0.0 5.2 18.6 240
09/11/2018 15:10 12.4 56 247.4 600 0.0 3.7 13.4 242
09/11/2018 15:20 12.4 55 225.1 600 0.0 4.1 14.9 229
09/11/2018 15:30 12.3 56 201.3 600 0.0 4.3 15.3 228
09/11/2018 15:40 11.9 58 134.3 456 0.0 4.8 17.3 234
09/11/2018 15:50 10.7 61 34.0 0 0.0 4.7 16.8 230
09/11/2018 16:00 10.4 65 94.0 426 0.0 3.7 13.2 217
09/11/2018 16:10 11.1 60 98.2 600 0.0 3.3 11.9 201
09/11/2018 16:20 11.1 60 68.7 600 0.0 4.0 14.5 183
09/11/2018 16:30 10.5 63 25.4 216 0.0 5.3 19.0 192
09/11/2018 16:40 9.8 65 0.0 0 0.0 5.5 19.9 207
09/11/2018 16:50 9.6 66 0.0 0 0.0 5.1 18.5 198
09/11/2018 17:00 9.0 68 0.0 0 0.0 5.2 18.8 202
09/11/2018 17:10 8.9 68 0.0 0 0.0 5.4 19.6 208
09/11/2018 17:20 8.7 67 0.0 0 0.0 4.8 17.3 201
09/11/2018 17:30 8.7 66 0.0 0 0.0 4.9 17.6 205
09/11/2018 17:40 8.7 67 0.0 0 0.0 5.5 19.7 224
09/11/2018 17:50 9.1 65 0.0 0 0.0 7.7 27.6 240
09/11/2018 18:00 9.1 66 0.0 0 0.0 7.1 25.4 240
09/11/2018 18:10 9.3 66 0.0 0 0.0 8.8 31.7 247
09/11/2018 18:20 9.3 67 0.0 0 0.0 7.8 28.2 240
09/11/2018 18:30 9.1 69 0.0 0 0.0 6.8 24.6 231
09/11/2018 18:40 9.1 69 0.0 0 0.0 6.9 24.8 223
09/11/2018 18:50 9.2 69 0.0 0 0.0 6.6 23.7 221
09/11/2018 19:00 9.2 69 0.0 0 0.0 6.1 21.9 220
09/11/2018 19:10 9.3 69 0.0 0 0.0 6.2 22.3 215
09/11/2018 19:20 9.0 72 0.0 0 0.0 5.2 18.6 195
09/11/2018 19:30 9.0 70 0.0 0 0.0 5.7 20.3 175
09/11/2018 19:40 9.3 67 0.0 0 0.0 5.1 18.4 189
09/11/2018 19:50 9.4 66 0.0 0 0.0 5.8 20.7 183
09/11/2018 20:00 9.5 65 0.0 0 0.0 5.6 20.3 175
09/11/2018 20:10 9.4 66 0.0 0 0.0 6.0 21.5 171
09/11/2018 20:20 9.6 66 0.0 0 0.0 6.5 23.5 172
09/11/2018 20:30 9.4 66 0.0 0 0.0 5.3 19.2 158
09/11/2018 20:40 9.1 68 0.0 0 0.0 3.8 13.8 201
09/11/2018 20:50 8.9 67 0.0 0 0.0 5.1 18.3 183
09/11/2018 21:00 9.0 65 0.0 0 0.0 6.3 22.6 177
09/11/2018 21:10 9.1 65 0.0 0 0.0 6.1 22.1 177
09/11/2018 21:20 8.8 67 0.0 0 0.0 6.2 22.2 182
09/11/2018 21:30 8.8 65 0.0 0 0.0 7.3 26.4 172
09/11/2018 21:40 8.8 66 0.0 0 0.0 6.1 22.0 155
09/11/2018 21:50 9.0 63 0.0 0 0.0 5.7 20.5 144
09/11/2018 22:00 9.5 61 0.0 0 0.0 4.9 17.7 144
09/11/2018 22:10 9.3 64 0.0 0 0.0 3.7 13.4 163
09/11/2018 22:20 9.2 64 0.0 0 0.0 5.2 18.8 150
09/11/2018 22:30 9.8 62 0.0 0 0.0 3.8 13.8 129
09/11/2018 22:40 9.9 62 0.0 0 0.0 6.1 22.1 140
09/11/2018 22:50 9.8 62 0.0 0 0.0 7.4 26.5 144
09/11/2018 23:00 9.6 64 0.0 0 0.0 6.3 22.6 155
09/11/2018 23:10 9.3 66 0.0 0 0.0 7.4 26.5 155
09/11/2018 23:20 9.5 65 0.0 0 0.0 7.5 27.1 151
09/11/2018 23:30 9.5 65 0.0 0 0.0 7.6 27.3 150
09/11/2018 23:40 9.5 66 0.0 0 0.0 6.7 24.2 159
09/11/2018 23:50 9.6 66 0.0 0 0.0 6.8 24.6 163
Anterior Página 1 de 1 Siguiente

NOTA: Tipo de datos según el color:
   - Valores diarios o 10 minutos correctos
   - Valores diarios calculados a partir de un número de datos 10 minutos menor que 144 y mayor que 120, o de un número de datos semihorarios menor que 48 y mayor que 40 (caso de las estaciones de Riegos de Navarra y del MARM)
   - Valores diez minutos estimados


Contacto        Enlaces        Aviso legal